Time;durP1;ratioP1;P1;durP2;ratioP2;P2;SDS_P1;SDS_P2;PMS_P1;PMS_P2;Temp;Humidity;BMP_temperature;BMP_pressure;BME280_temperature;BME280_humidity;BME280_pressure;Samples;Min_cycle;Max_cycle;Signal;HPM_P1;HPM_P2
2022/01/13 00:00:30;;;;;;;69.78;22.40;;;;;;;0.51;100.00;101758.84;5044915;28;20372;-61
2022/01/13 00:02:56;;;;;;;66.90;22.75;;;;;;;0.41;100.00;101761.34;5033461;28;20040;-61
2022/01/13 00:05:28;;;;;;;66.75;25.15;;;;;;;0.39;100.00;101757.97;5036147;28;20053;-61
2022/01/13 00:07:55;;;;;;;62.35;21.25;;;;;;;0.33;100.00;101748.72;5027304;28;20105;-61
2022/01/13 00:10:21;;;;;;;78.03;23.17;;;;;;;0.38;100.00;101759.78;5027682;28;20080;-61
2022/01/13 00:12:46;;;;;;;72.93;22.80;;;;;;;0.34;100.00;101762.75;5033759;28;20052;-61
2022/01/13 00:23:39;;;;;;;70.45;24.23;;;;;;;0.34;100.00;101757.47;5031390;28;20029;-61
2022/01/13 00:25:34;;;;;;;61.15;23.33;;;;;;;0.31;100.00;101762.97;5029193;28;20534;-61
2022/01/13 00:28:03;;;;;;;63.50;22.35;;;;;;;0.33;100.00;101764.56;5037563;28;20025;-61
2022/01/13 00:30:28;;;;;;;65.03;23.25;;;;;;;0.35;100.00;101759.16;5034327;28;20160;-61
2022/01/13 00:32:54;;;;;;;67.75;22.48;;;;;;;0.46;100.00;101767.13;5034383;28;20033;-61
2022/01/13 00:35:19;;;;;;;80.90;26.55;;;;;;;0.48;100.00;101773.13;5038666;28;20872;-61
2022/01/13 00:37:44;;;;;;;60.65;26.27;;;;;;;0.45;100.00;101765.44;5041416;28;20656;-61
2022/01/13 00:40:11;;;;;;;62.90;24.63;;;;;;;0.35;100.00;101767.94;5033151;28;20033;-62
2022/01/13 00:42:36;;;;;;;59.47;21.63;;;;;;;0.23;100.00;101763.56;5035670;28;20063;-61
2022/01/13 00:45:03;;;;;;;64.07;24.23;;;;;;;0.25;100.00;101758.16;5029444;28;20029;-61
2022/01/13 00:47:30;;;;;;;59.45;22.00;;;;;;;0.18;100.00;101755.13;5036532;28;20409;-61
2022/01/13 00:49:57;;;;;;;62.10;24.42;;;;;;;0.23;100.00;101752.16;5057034;28;20044;-61
2022/01/13 00:52:24;;;;;;;65.95;23.85;;;;;;;0.20;100.00;101756.72;5031422;28;20411;-61
2022/01/13 00:54:49;;;;;;;69.15;24.60;;;;;;;0.26;100.00;101754.56;5034665;28;20044;-61
2022/01/13 00:57:14;;;;;;;60.30;24.77;;;;;;;0.24;100.00;101761.75;5031791;28;20057;-61
2022/01/13 00:59:40;;;;;;;65.63;24.42;;;;;;;0.24;100.00;101761.75;5038454;28;20045;-61
2022/01/13 01:02:05;;;;;;;72.72;25.80;;;;;;;0.23;100.00;101760.09;5030577;28;20037;-61
2022/01/13 01:04:31;;;;;;;65.22;25.70;;;;;;;0.24;100.00;101761.75;5052135;28;20036;-61
2022/01/13 01:06:56;;;;;;;62.30;23.90;;;;;;;0.24;100.00;101756.47;5031066;28;20048;-61
2022/01/13 01:09:36;;;;;;;68.82;24.50;;;;;;;0.20;100.00;101761.13;5025655;28;20037;-61
2022/01/13 01:12:02;;;;;;;63.50;24.45;;;;;;;0.16;100.00;101763.16;5032112;28;20045;-61
2022/01/13 01:14:31;;;;;;;61.50;24.65;;;;;;;0.15;100.00;101763.25;5038236;28;20037;-61
2022/01/13 01:16:57;;;;;;;70.78;26.02;;;;;;;0.14;100.00;101756.31;5036244;28;20073;-61
2022/01/13 01:19:27;;;;;;;71.05;25.83;;;;;;;0.13;100.00;101758.09;5031821;28;20044;-61
2022/01/13 01:22:29;;;;;;;73.75;25.60;;;;;;;0.16;100.00;101760.53;5037469;28;20069;-61
2022/01/13 01:27:30;;;;;;;67.82;26.05;;;;;;;0.13;100.00;101760.75;5028648;28;20042;-60
2022/01/13 01:30:25;;;;;;;69.13;25.65;;;;;;;0.16;100.00;101759.69;5038230;28;20140;-62
2022/01/13 01:32:51;;;;;;;76.75;24.70;;;;;;;0.13;100.00;101768.66;5048367;28;20622;-62
2022/01/13 01:35:18;;;;;;;71.80;25.45;;;;;;;0.10;100.00;101768.88;5049588;28;20043;-62
2022/01/13 01:37:43;;;;;;;72.57;26.20;;;;;;;0.10;100.00;101766.25;5042476;28;20060;-62
2022/01/13 01:40:10;;;;;;;69.55;26.48;;;;;;;0.14;100.00;101770.34;5032794;28;20069;-60
2022/01/13 01:42:36;;;;;;;63.28;25.17;;;;;;;0.11;100.00;101775.84;5029980;28;20040;-60
2022/01/13 01:45:01;;;;;;;65.18;23.95;;;;;;;0.16;100.00;101781.63;5024220;28;20041;-61
2022/01/13 01:47:28;;;;;;;62.25;23.88;;;;;;;0.14;100.00;101783.53;5027552;28;20033;-60
2022/01/13 01:49:56;;;;;;;60.15;24.33;;;;;;;0.18;100.00;101787.63;5042853;28;20037;-61
2022/01/13 01:52:22;;;;;;;67.72;24.65;;;;;;;0.13;100.00;101787.13;5032636;28;20465;-60
2022/01/13 01:54:48;;;;;;;61.60;23.98;;;;;;;0.06;100.00;101785.88;5031897;28;20095;-60
2022/01/13 01:57:14;;;;;;;67.47;24.48;;;;;;;-0.02;100.00;101777.69;5029292;28;20046;-60
2022/01/13 01:59:41;;;;;;;58.58;22.17;;;;;;;-0.15;100.00;101780.38;5029643;28;20072;-60
2022/01/13 02:02:07;;;;;;;70.45;25.67;;;;;;;0.17;100.00;101785.94;5027805;28;20052;-60
2022/01/13 02:04:33;;;;;;;67.03;23.15;;;;;;;0.12;100.00;101785.41;5034032;28;20068;-60
2022/01/13 02:07:07;;;;;;;68.28;25.50;;;;;;;0.03;100.00;101780.84;5031374;28;20669;-60
2022/01/13 02:09:35;;;;;;;68.20;23.60;;;;;;;0.06;100.00;101779.78;5048635;28;20060;-60
2022/01/13 02:12:05;;;;;;;69.55;25.38;;;;;;;-0.01;100.00;101777.56;5035230;28;20057;-61
2022/01/13 02:14:50;;;;;;;67.00;24.17;;;;;;;-0.01;100.00;101774.09;5032750;28;20124;-60
2022/01/13 02:17:22;;;;;;;68.40;24.02;;;;;;;-0.03;100.00;101770.72;5031018;28;20221;-60
2022/01/13 02:19:48;;;;;;;74.72;25.90;;;;;;;-0.06;100.00;101768.31;5024200;28;20025;-60
2022/01/13 02:22:13;;;;;;;65.95;24.38;;;;;;;-0.03;100.00;101765.44;5032309;28;20052;-60
2022/01/13 02:24:39;;;;;;;64.15;23.42;;;;;;;-0.13;100.00;101764.44;5027464;28;20103;-60
2022/01/13 02:27:05;;;;;;;68.00;22.17;;;;;;;-0.01;100.00;101769.66;5025600;28;20041;-60
2022/01/13 02:29:30;;;;;;;73.35;24.55;;;;;;;-0.22;100.00;101760.69;5028809;28;20071;-60
2022/01/13 02:31:56;;;;;;;60.05;23.27;;;;;;;-0.29;100.00;101755.00;5031728;28;20073;-60
2022/01/13 02:34:21;;;;;;;71.03;23.92;;;;;;;-0.16;100.00;101769.94;5031657;28;20041;-60
2022/01/13 02:36:49;;;;;;;67.07;23.73;;;;;;;-0.17;100.00;101765.63;5031710;28;20033;-61
2022/01/13 02:39:14;;;;;;;63.97;23.13;;;;;;;-0.23;100.00;101762.44;5028404;28;20033;-61
2022/01/13 02:41:40;;;;;;;67.55;23.88;;;;;;;-0.13;100.00;101759.16;5028983;28;20034;-61
2022/01/13 02:44:15;;;;;;;60.13;21.75;;;;;;;-0.12;100.00;101753.78;5031040;28;20025;-61
2022/01/13 02:49:08;;;;;;;71.32;25.60;;;;;;;-0.09;100.00;101755.34;5029965;28;20045;-61
2022/01/13 02:51:33;;;;;;;64.80;25.10;;;;;;;-0.06;100.00;101758.59;5029430;28;20041;-61
2022/01/13 02:53:59;;;;;;;61.92;22.98;;;;;;;-0.20;100.00;101763.19;5036756;28;20064;-61
2022/01/13 02:56:24;;;;;;;72.38;22.83;;;;;;;-0.23;100.00;101753.69;5030846;28;20107;-61
2022/01/13 02:58:50;;;;;;;57.38;22.95;;;;;;;-0.31;100.00;101756.91;5027862;28;20401;-61
2022/01/13 03:01:15;;;;;;;68.05;22.70;;;;;;;-0.23;100.00;101754.53;5028554;28;20045;-60
2022/01/13 03:03:41;;;;;;;69.68;25.70;;;;;;;-0.23;100.00;101758.97;5027507;28;20021;-61
2022/01/13 03:06:08;;;;;;;63.28;22.20;;;;;;;-0.23;100.00;101751.91;5034012;28;20045;-61
2022/01/13 03:08:34;;;;;;;57.67;22.05;;;;;;;-0.21;100.00;101754.44;5022800;28;20597;-60
2022/01/13 03:10:59;;;;;;;54.22;20.88;;;;;;;-0.27;100.00;101753.09;5027055;28;20072;-60
2022/01/13 03:13:28;;;;;;;60.13;21.33;;;;;;;-0.27;100.00;101768.91;5026142;28;20606;-61
2022/01/13 03:15:53;;;;;;;64.57;20.20;;;;;;;-0.16;100.00;101765.50;5027161;28;20404;-61
2022/01/13 03:18:19;;;;;;;63.92;22.48;;;;;;;-0.20;100.00;101757.91;5027058;28;20044;-61
2022/01/13 03:20:44;;;;;;;65.35;24.17;;;;;;;-0.19;100.00;101759.63;5026561;28;20048;-61
2022/01/13 03:23:10;;;;;;;82.57;27.38;;;;;;;-0.17;100.00;101758.56;5030752;28;20654;-61
2022/01/13 03:25:36;;;;;;;81.65;27.73;;;;;;;-0.18;100.00;101756.00;5027648;28;20568;-61
2022/01/13 03:28:07;;;;;;;72.35;27.92;;;;;;;-0.23;100.00;101766.88;5027650;28;20110;-61
2022/01/13 03:30:32;;;;;;;79.35;27.33;;;;;;;-0.18;100.00;101759.47;5030622;28;20037;-61
2022/01/13 03:33:00;;;;;;;76.03;27.80;;;;;;;-0.19;100.00;101759.63;5023495;28;20072;-61
2022/01/13 03:35:26;;;;;;;77.93;28.67;;;;;;;-0.16;100.00;101757.59;5026299;28;20045;-61
2022/01/13 03:37:51;;;;;;;73.18;26.80;;;;;;;-0.19;100.00;101754.34;5030652;28;20028;-61
2022/01/13 03:40:17;;;;;;;72.18;24.90;;;;;;;-0.22;100.00;101764.16;5032450;28;20578;-61
2022/01/13 03:42:42;;;;;;;69.70;26.00;;;;;;;-0.25;100.00;101760.88;5028099;28;20082;-61
2022/01/13 03:45:08;;;;;;;75.45;25.05;;;;;;;-0.27;100.00;101763.63;5010913;28;20033;-61
2022/01/13 03:47:33;;;;;;;74.10;26.90;;;;;;;-0.27;100.00;101762.81;5051696;28;20017;-61
2022/01/13 03:49:59;;;;;;;73.00;26.83;;;;;;;-0.29;100.00;101759.44;5045706;28;20382;-61
2022/01/13 03:52:24;;;;;;;64.90;26.38;;;;;;;-0.32;100.00;101757.03;5028634;28;20048;-62
2022/01/13 03:55:25;;;;;;;70.03;24.98;;;;;;;-0.23;100.00;101758.97;5021988;28;20136;-60
2022/01/13 03:58:14;;;;;;;68.63;24.50;;;;;;;-0.34;100.00;101765.03;5052790;28;20044;-60
2022/01/13 04:00:51;;;;;;;84.72;25.75;;;;;;;-0.35;100.00;101751.94;5048322;28;20037;-62
2022/01/13 04:03:16;;;;;;;77.25;25.92;;;;;;;-0.42;100.00;101759.47;5030061;28;20040;-62
2022/01/13 04:06:13;;;;;;;85.00;27.23;;;;;;;-0.61;100.00;101753.81;5026226;28;20096;-60
2022/01/13 04:08:39;;;;;;;76.40;27.73;;;;;;;-0.55;100.00;101758.63;5027831;28;20047;-60
2022/01/13 04:11:04;;;;;;;88.75;28.38;;;;;;;-0.49;100.00;101758.22;5037423;28;20038;-62
2022/01/13 04:16:19;;;;;;;92.70;30.05;;;;;;;-0.56;100.00;101746.44;5030414;28;20056;-60
2022/01/13 04:18:48;;;;;;;94.10;27.90;;;;;;;-0.62;100.00;101750.34;5042989;28;20044;-62
2022/01/13 04:21:14;;;;;;;75.80;28.52;;;;;;;-0.62;100.00;101749.47;5023025;28;20075;-62
2022/01/13 04:23:39;;;;;;;78.78;25.77;;;;;;;-0.63;100.00;101734.63;5024944;28;20434;-62
2022/01/13 04:26:06;;;;;;;70.95;25.38;;;;;;;-0.62;100.00;101741.56;5048075;28;20515;-62
2022/01/13 04:28:32;;;;;;;64.65;23.15;;;;;;;-0.70;100.00;101739.47;5027314;28;20036;-62
2022/01/13 04:31:01;;;;;;;62.85;22.70;;;;;;;-0.73;100.00;101743.19;5026323;28;20120;-61
2022/01/13 04:33:36;;;;;;;73.95;24.38;;;;;;;-0.82;100.00;101741.22;5032671;28;20045;-60
2022/01/13 04:36:02;;;;;;;64.45;23.60;;;;;;;-0.70;100.00;101729.81;5028890;28;20044;-61
2022/01/13 04:38:27;;;;;;;68.00;25.45;;;;;;;-0.78;100.00;101726.84;5028947;28;20132;-61
2022/01/13 04:40:57;;;;;;;82.47;25.77;;;;;;;-0.80;100.00;101718.25;5027335;28;20503;-61
2022/01/13 04:43:23;;;;;;;76.13;24.33;;;;;;;-0.84;100.00;101706.22;5047403;28;20313;-62
2022/01/13 04:45:53;;;;;;;61.80;21.95;;;;;;;-0.90;100.00;101711.91;5017422;28;20037;-61
2022/01/13 04:48:27;;;;;;;63.72;21.60;;;;;;;-0.91;100.00;101710.25;5029271;28;20041;-63
2022/01/13 04:50:55;;;;;;;72.05;23.88;;;;;;;-0.86;100.00;101713.41;5034180;28;20045;-61
2022/01/13 04:53:21;;;;;;;72.13;22.42;;;;;;;-0.95;100.00;101729.81;5030101;28;20328;-62
2022/01/13 04:55:52;;;;;;;74.97;23.35;;;;;;;-0.98;100.00;101722.97;5036710;28;20055;-63
2022/01/13 04:58:21;;;;;;;69.25;22.92;;;;;;;-1.01;100.00;101725.00;5022619;28;20656;-65
2022/01/13 05:00:46;;;;;;;79.70;24.48;;;;;;;-0.90;100.00;101732.97;5030865;28;20748;-62
2022/01/13 05:03:12;;;;;;;77.03;25.00;;;;;;;-1.00;100.00;101732.81;5026348;28;20472;-61
2022/01/13 05:05:37;;;;;;;81.93;23.65;;;;;;;-0.98;100.00;101732.69;5029180;28;20041;-61
2022/01/13 05:08:03;;;;;;;65.55;21.60;;;;;;;-0.99;100.00;101734.47;5031475;28;20037;-61
2022/01/13 05:10:28;;;;;;;77.43;23.23;;;;;;;-1.00;100.00;101739.84;5037156;28;20043;-62
2022/01/13 05:12:56;;;;;;;80.32;22.42;;;;;;;-0.97;100.00;101737.84;5051516;28;20111;-61
2022/01/13 05:15:24;;;;;;;70.97;21.02;;;;;;;-1.03;100.00;101738.25;5051438;28;20060;-62
2022/01/13 05:20:26;;;;;;;78.32;21.73;;;;;;;-1.01;100.00;101740.78;5034226;28;20485;-61
2022/01/13 05:22:52;;;;;;;89.35;25.88;;;;;;;-1.01;100.00;101749.53;5032030;28;20032;-61
2022/01/13 05:25:17;;;;;;;80.72;23.75;;;;;;;-0.97;100.00;101737.84;5029844;28;20025;-61
2022/01/13 05:27:43;;;;;;;72.70;21.52;;;;;;;-1.10;100.00;101729.97;5037241;28;20530;-61
2022/01/13 05:30:09;;;;;;;87.40;23.75;;;;;;;-1.12;100.00;101723.94;5044150;28;20435;-61
2022/01/13 05:32:35;;;;;;;78.30;22.55;;;;;;;-1.18;100.00;101728.78;5036320;28;20029;-62
2022/01/13 05:35:00;;;;;;;93.55;26.10;;;;;;;-1.15;100.00;101724.16;5038474;28;20588;-61
2022/01/13 05:37:26;;;;;;;76.03;22.73;;;;;;;-1.16;100.00;101721.63;5053336;28;20455;-62
2022/01/13 05:39:51;;;;;;;67.13;21.40;;;;;;;-1.02;100.00;101724.16;5041905;28;20074;-61
2022/01/13 05:42:17;;;;;;;80.18;22.55;;;;;;;-1.08;100.00;101721.94;5041943;28;20052;-61
2022/01/13 05:44:42;;;;;;;80.45;23.08;;;;;;;-1.03;100.00;101716.34;5027710;28;20037;-61
2022/01/13 05:47:09;;;;;;;82.75;23.05;;;;;;;-1.05;100.00;101707.72;5029446;28;20050;-61
2022/01/13 05:49:35;;;;;;;83.07;24.95;;;;;;;-1.01;100.00;101715.31;5035664;28;20124;-60
2022/01/13 05:52:00;;;;;;;78.07;22.85;;;;;;;-0.99;100.00;101717.84;5036629;28;20037;-61
2022/01/13 05:54:26;;;;;;;93.70;26.15;;;;;;;-0.99;100.00;101723.09;5031645;28;20041;-63
2022/01/13 05:56:51;;;;;;;82.03;23.13;;;;;;;-1.06;100.00;101722.69;5009227;28;20046;-62
2022/01/13 05:59:18;;;;;;;78.68;23.45;;;;;;;-1.03;100.00;101726.88;5036404;28;20160;-61
2022/01/13 06:01:43;;;;;;;96.03;27.63;;;;;;;-1.02;100.00;101734.69;5032930;28;20279;-62
2022/01/13 06:04:09;;;;;;;78.18;23.08;;;;;;;-1.05;100.00;101728.78;5034563;28;20049;-62
2022/01/13 06:06:34;;;;;;;86.97;26.83;;;;;;;-1.01;100.00;101735.53;5039979;28;20048;-62
2022/01/13 06:08:59;;;;;;;71.68;22.83;;;;;;;-0.98;100.00;101737.94;5032551;28;20040;-62
2022/01/13 06:11:27;;;;;;;67.05;20.95;;;;;;;-0.99;100.00;101738.91;5030725;28;20045;-62
2022/01/13 06:13:52;;;;;;;67.47;21.17;;;;;;;-1.07;100.00;101731.53;5039344;28;20575;-62
2022/01/13 06:16:18;;;;;;;37.83;15.75;;;;;;;-1.14;100.00;101733.75;5027357;28;20037;-62
2022/01/13 06:18:43;;;;;;;55.50;18.63;;;;;;;-1.27;100.00;101738.16;5030836;28;20056;-61
2022/01/13 06:21:09;;;;;;;67.45;21.65;;;;;;;-1.42;100.00;101729.50;5025325;28;20049;-63
2022/01/13 06:23:34;;;;;;;66.07;21.30;;;;;;;-1.28;100.00;101735.63;5039690;28;20084;-61
2022/01/13 06:26:02;;;;;;;75.30;25.95;;;;;;;-1.21;100.00;101732.47;5038363;28;20041;-61
2022/01/13 06:28:27;;;;;;;79.10;21.48;;;;;;;-1.36;100.00;101736.16;5031007;28;20037;-61
2022/01/13 06:30:53;;;;;;;64.50;20.00;;;;;;;-1.16;100.00;101738.25;5039855;28;20754;-61
2022/01/13 06:33:19;;;;;;;74.55;20.92;;;;;;;-1.21;100.00;101727.19;5050719;28;20483;-61
2022/01/13 06:35:46;;;;;;;86.28;21.17;;;;;;;-1.29;100.00;101726.91;5032024;28;20056;-62
2022/01/13 06:38:11;;;;;;;69.80;21.95;;;;;;;-1.33;100.00;101723.59;5033476;28;20032;-61
2022/01/13 06:40:37;;;;;;;76.13;23.95;;;;;;;-1.30;100.00;101725.19;5021886;28;20125;-62
2022/01/13 06:43:02;;;;;;;85.47;20.00;;;;;;;-1.35;100.00;101722.03;5032698;28;20041;-63
2022/01/13 06:45:28;;;;;;;70.97;16.88;;;;;;;-1.44;100.00;101727.94;5032236;28;20565;-62
2022/01/13 06:47:53;;;;;;;83.20;18.35;;;;;;;-1.54;100.00;101719.81;5032343;28;20135;-62
2022/01/13 06:50:19;;;;;;;65.03;20.20;;;;;;;-1.49;100.00;101722.97;5029084;28;20502;-61
2022/01/13 06:52:46;;;;;;;71.60;18.83;;;;;;;-1.48;100.00;101729.06;5034049;28;20025;-62
2022/01/13 06:55:11;;;;;;;93.80;18.85;;;;;;;-1.57;100.00;101730.56;5022342;28;20221;-63
2022/01/13 06:57:37;;;;;;;78.72;21.10;;;;;;;-1.59;100.00;101733.28;5025257;28;20087;-62
2022/01/13 07:00:03;;;;;;;68.00;19.30;;;;;;;-1.63;100.00;101737.03;5023459;28;20037;-63
2022/01/13 07:02:30;;;;;;;75.10;19.17;;;;;;;-1.53;100.00;101734.63;5030552;28;20765;-63
2022/01/13 07:04:56;;;;;;;84.43;18.52;;;;;;;-1.59;100.00;101754.31;5012495;28;20037;-64
2022/01/13 07:07:21;;;;;;;75.88;20.80;;;;;;;-1.54;100.00;101754.00;5022208;28;20052;-63
2022/01/13 07:09:46;;;;;;;81.88;21.40;;;;;;;-1.41;100.00;101764.56;5031087;28;20041;-62
2022/01/13 07:12:12;;;;;;;93.53;20.50;;;;;;;-1.50;100.00;101762.53;5019914;28;20124;-63
2022/01/13 07:14:47;;;;;;;72.60;19.90;;;;;;;-1.52;100.00;101760.03;5017429;28;20025;-63
2022/01/13 07:17:12;;;;;;;66.25;19.65;;;;;;;-1.50;100.00;101765.16;5022888;28;20818;-62
2022/01/13 07:19:38;;;;;;;79.15;20.73;;;;;;;-1.45;100.00;101765.69;5010149;28;20029;-63
2022/01/13 07:22:03;;;;;;;87.35;22.63;;;;;;;-1.42;100.00;101768.97;5039238;28;20126;-62
2022/01/13 07:24:28;;;;;;;49.78;15.70;;;;;;;-1.48;100.00;101768.53;5030071;28;20029;-62
2022/01/13 07:26:54;;;;;;;71.28;21.17;;;;;;;-1.48;100.00;101760.66;5020204;28;20075;-62
2022/01/13 07:29:19;;;;;;;100.45;23.80;;;;;;;-1.48;100.00;101765.91;5029163;28;20038;-63
2022/01/13 07:31:47;;;;;;;74.45;18.85;;;;;;;-1.40;100.00;101768.84;5031388;28;20037;-62
2022/01/13 07:34:13;;;;;;;74.22;21.30;;;;;;;-1.43;100.00;101766.44;5023544;28;20029;-62
2022/01/13 07:36:39;;;;;;;80.82;21.58;;;;;;;-1.38;100.00;101767.81;5031230;28;20041;-61
2022/01/13 07:39:05;;;;;;;78.40;25.60;;;;;;;-1.42;100.00;101773.38;5027810;28;20083;-61
2022/01/13 07:41:31;;;;;;;86.38;24.83;;;;;;;-1.33;100.00;101776.22;5035363;28;20041;-61
2022/01/13 07:43:56;;;;;;;83.15;26.63;;;;;;;-1.35;100.00;101780.78;5025578;28;20025;-62
2022/01/13 07:46:22;;;;;;;81.13;21.17;;;;;;;-1.41;100.00;101781.19;5029205;28;20041;-62
2022/01/13 07:48:48;;;;;;;82.38;21.60;;;;;;;-1.35;100.00;101777.28;5028440;28;20021;-62
2022/01/13 07:51:13;;;;;;;85.45;22.13;;;;;;;-1.36;100.00;101788.75;5027842;28;20041;-62
2022/01/13 07:53:39;;;;;;;91.22;19.00;;;;;;;-1.37;100.00;101779.19;5029167;28;20040;-62
2022/01/13 07:56:04;;;;;;;86.55;22.25;;;;;;;-1.43;100.00;101772.53;5029257;28;20044;-62
2022/01/13 07:58:30;;;;;;;89.80;30.95;;;;;;;-1.32;100.00;101769.22;5033361;28;20324;-61
2022/01/13 08:00:55;;;;;;;93.35;18.45;;;;;;;-1.34;100.00;101765.84;5032441;28;20046;-62
2022/01/13 08:03:21;;;;;;;131.60;38.88;;;;;;;-1.30;100.00;101767.28;5026214;28;20034;-62
2022/01/13 08:05:46;;;;;;;67.50;20.48;;;;;;;-1.26;100.00;101768.78;5027893;28;20041;-62
2022/01/13 08:08:12;;;;;;;104.40;22.67;;;;;;;-1.20;100.00;101778.91;5032996;28;20103;-62
2022/01/13 08:10:37;;;;;;;68.43;19.80;;;;;;;-1.19;100.00;101783.22;5029775;28;20045;-63
2022/01/13 08:13:03;;;;;;;73.97;17.42;;;;;;;-1.43;100.00;101779.59;5029047;28;20041;-62
2022/01/13 08:15:29;;;;;;;102.05;30.40;;;;;;;-1.37;100.00;101784.47;5034951;28;20051;-63
2022/01/13 08:20:39;;;;;;;71.10;19.08;;;;;;;-1.43;100.00;101801.47;5044967;28;20045;-63
2022/01/13 08:23:04;;;;;;;94.72;14.27;;;;;;;-1.48;100.00;101797.47;5022257;28;20052;-62
2022/01/13 08:25:30;;;;;;;116.97;17.75;;;;;;;-1.54;100.00;101801.34;5025539;28;20241;-62
2022/01/13 08:27:56;;;;;;;136.25;18.17;;;;;;;-1.53;100.00;101798.59;5025081;28;20037;-63
2022/01/13 08:30:21;;;;;;;153.90;18.80;;;;;;;-1.43;100.00;101792.75;5032649;28;20111;-62
2022/01/13 08:32:47;;;;;;;135.73;16.88;;;;;;;-1.41;100.00;101796.13;5028640;28;20430;-63
2022/01/13 08:35:13;;;;;;;110.43;19.73;;;;;;;-1.52;100.00;101800.31;5026258;28;20041;-63
2022/01/13 08:37:38;;;;;;;88.35;16.33;;;;;;;-1.56;100.00;101788.28;5031317;28;20036;-63
2022/01/13 08:40:05;;;;;;;82.95;17.65;;;;;;;-1.56;100.00;101792.72;5027549;28;20036;-62
2022/01/13 08:42:32;;;;;;;63.22;18.83;;;;;;;-1.41;100.00;101782.97;5029379;28;20064;-62
2022/01/13 08:44:58;;;;;;;69.80;14.85;;;;;;;-1.43;100.00;101792.75;5041287;28;20343;-62
2022/01/13 08:47:23;;;;;;;77.30;18.70;;;;;;;-1.38;100.00;101785.38;5027128;28;20079;-62
2022/01/13 08:49:49;;;;;;;58.45;16.90;;;;;;;-1.33;100.00;101786.75;5035303;28;20103;-62
2022/01/13 08:52:14;;;;;;;34.50;12.05;;;;;;;-1.37;100.00;101787.09;5027627;28;20096;-61
2022/01/13 08:54:41;;;;;;;67.35;18.95;;;;;;;-1.34;100.00;101784.25;5035292;28;20033;-61
2022/01/13 08:57:07;;;;;;;59.60;16.45;;;;;;;-1.20;100.00;101786.81;5033183;28;20053;-61
2022/01/13 08:59:32;;;;;;;59.53;17.85;;;;;;;-1.30;100.00;101793.59;5037389;28;20119;-60
2022/01/13 09:01:57;;;;;;;32.85;9.63;;;;;;;-1.28;100.00;101794.34;5025652;28;20052;-60
2022/01/13 09:04:23;;;;;;;61.90;16.77;;;;;;;-1.23;100.00;101784.34;5045828;28;20407;-62
2022/01/13 09:06:48;;;;;;;50.67;15.57;;;;;;;-1.37;100.00;101800.25;5032343;28;20049;-62
2022/01/13 09:09:14;;;;;;;51.58;16.13;;;;;;;-1.23;100.00;101784.34;5029934;28;20582;-63
2022/01/13 09:11:41;;;;;;;55.33;17.45;;;;;;;-1.03;100.00;101790.06;5033959;28;20072;-62
2022/01/13 09:14:06;;;;;;;52.30;17.20;;;;;;;-0.96;100.00;101796.59;5033035;28;20037;-62
2022/01/13 09:16:41;;;;;;;58.80;17.08;;;;;;;-1.00;100.00;101800.38;5031643;28;20563;-63
2022/01/13 09:19:11;;;;;;;53.17;16.88;;;;;;;-1.01;100.00;101794.28;5031714;28;20045;-63
2022/01/13 09:21:37;;;;;;;56.25;15.55;;;;;;;-1.05;100.00;101799.84;5047104;28;20052;-61
2022/01/13 09:24:04;;;;;;;47.20;16.67;;;;;;;-0.94;100.00;101789.44;5034842;28;20056;-61
2022/01/13 09:26:31;;;;;;;38.47;13.88;;;;;;;-1.09;100.00;101791.34;5029605;28;20103;-61
2022/01/13 09:28:56;;;;;;;47.05;16.30;;;;;;;-1.12;100.00;101792.38;5051139;28;20537;-62
2022/01/13 09:31:22;;;;;;;44.05;15.63;;;;;;;-1.10;100.00;101797.53;5032007;28;20041;-60
2022/01/13 09:33:48;;;;;;;47.40;15.70;;;;;;;-0.89;100.00;101803.13;5034590;28;20055;-60
2022/01/13 09:36:13;;;;;;;61.33;16.13;;;;;;;-0.94;100.00;101800.81;5047798;28;20586;-61
2022/01/13 09:38:39;;;;;;;54.70;16.60;;;;;;;-0.63;100.00;101795.22;5029991;28;20075;-60
2022/01/13 09:41:04;;;;;;;48.50;15.82;;;;;;;-0.62;100.00;101799.53;5027607;28;20045;-60
2022/01/13 09:43:30;;;;;;;45.47;14.95;;;;;;;-0.61;100.00;101804.69;5030819;28;20139;-61
2022/01/13 09:45:57;;;;;;;37.10;14.27;;;;;;;-0.60;100.00;101802.91;5025366;28;20052;-63
2022/01/13 09:48:23;;;;;;;52.25;15.75;;;;;;;-0.60;100.00;101808.16;5034425;28;20029;-62
2022/01/13 09:50:48;;;;;;;45.17;14.88;;;;;;;-0.63;100.00;101811.03;5028408;28;20329;-63
2022/01/13 09:53:14;;;;;;;29.00;11.30;;;;;;;-0.78;100.00;101819.03;5031304;28;20130;-62
2022/01/13 09:55:41;;;;;;;36.65;13.68;;;;;;;-0.63;100.00;101813.66;5030650;28;20131;-61
2022/01/13 09:58:10;;;;;;;39.83;12.77;;;;;;;-0.73;100.00;101822.19;5030874;28;20140;-63
2022/01/13 10:00:39;;;;;;;40.72;15.45;;;;;;;-0.64;100.00;101819.88;5035905;28;20049;-62
2022/01/13 10:03:16;;;;;;;42.65;16.67;;;;;;;-0.53;100.00;101823.44;5054684;28;20086;-62
2022/01/13 10:05:52;;;;;;;38.30;14.30;;;;;;;-0.59;100.00;101833.59;5049068;28;20045;-62
2022/01/13 10:08:22;;;;;;;35.92;13.18;;;;;;;-0.61;100.00;101832.84;5024493;28;20047;-62
2022/01/13 10:10:48;;;;;;;28.88;12.38;;;;;;;-0.45;100.00;101828.16;5031579;28;20412;-61
2022/01/13 10:13:22;;;;;;;38.38;14.02;;;;;;;-0.37;100.00;101825.88;5031706;28;20079;-61
2022/01/13 10:18:45;;;;;;;31.75;13.95;;;;;;;-0.28;100.00;101830.47;5027145;28;20047;-61
2022/01/13 10:21:15;;;;;;;38.13;14.15;;;;;;;0.18;100.00;101827.19;5027904;28;20669;-61
2022/01/13 10:24:06;;;;;;;39.03;14.27;;;;;;;-0.37;100.00;101828.50;5034992;28;20021;-61
2022/01/13 10:26:34;;;;;;;29.83;13.32;;;;;;;-0.52;100.00;101827.78;5032202;28;20142;-61
2022/01/13 10:28:59;;;;;;;29.17;13.85;;;;;;;-0.35;100.00;101823.09;5029477;28;20036;-63
2022/01/13 10:31:57;;;;;;;33.70;14.10;;;;;;;-0.19;100.00;101817.59;5028074;28;20037;-62
2022/01/13 10:34:26;;;;;;;32.67;13.77;;;;;;;-0.14;100.00;101820.75;4996106;28;20295;-61
2022/01/13 10:37:11;;;;;;;35.33;15.32;;;;;;;-0.24;100.00;101810.84;5032850;28;20036;-61
2022/01/13 10:40:02;;;;;;;39.28;13.57;;;;;;;-0.30;100.00;101811.31;5047683;28;20048;-61
2022/01/13 10:45:20;;;;;;;36.13;13.77;;;;;;;-0.08;100.00;101817.66;5052834;28;20231;-61
2022/01/13 10:47:49;;;;;;;;;;;;;;;-0.12;100.00;101818.88;5033523;28;20027;-61
2022/01/13 10:50:14;;;;;;;17.50;8.38;;;;;;;-0.54;100.00;101813.03;5050472;28;19990;-61
2022/01/13 10:52:40;;;;;;;26.00;11.38;;;;;;;-0.23;100.00;101807.25;5035498;28;20574;-61
2022/01/13 10:55:11;;;;;;;23.80;11.32;;;;;;;0.12;100.00;101809.16;5033506;28;20033;-62
2022/01/13 10:57:37;;;;;;;28.67;11.95;;;;;;;0.57;99.48;101806.72;5040837;28;20056;-61
2022/01/13 11:00:17;;;;;;;29.00;12.82;;;;;;;0.46;97.60;101793.50;5035451;28;20044;-62
2022/01/13 11:02:46;;;;;;;36.08;13.60;;;;;;;0.71;97.36;101796.94;5051942;28;20449;-61
2022/01/13 11:05:12;;;;;;;33.55;14.45;;;;;;;0.51;98.00;101788.72;5048403;28;20065;-61
2022/01/13 11:07:40;;;;;;;35.45;14.60;;;;;;;0.69;98.75;101793.59;5027155;28;20037;-61
2022/01/13 11:10:06;;;;;;;32.08;13.25;;;;;;;0.61;97.30;101787.06;5021624;28;20543;-62
2022/01/13 11:12:43;;;;;;;33.90;13.73;;;;;;;0.24;99.27;101782.84;5033092;28;20573;-61
2022/01/13 11:15:13;;;;;;;32.38;13.30;;;;;;;0.32;98.37;101781.31;5027321;28;20029;-62
2022/01/13 11:17:40;;;;;;;31.85;14.20;;;;;;;0.20;99.46;101783.09;5032934;28;20496;-62
2022/01/13 11:20:10;;;;;;;30.88;13.73;;;;;;;0.04;100.00;101777.22;5029375;28;20049;-63
2022/01/13 11:22:42;;;;;;;34.47;14.18;;;;;;;0.53;100.00;101778.06;5049596;28;20040;-62
2022/01/13 11:25:10;;;;;;;25.83;12.48;;;;;;;0.36;99.15;101781.94;5027070;28;20052;-62
2022/01/13 11:27:36;;;;;;;32.97;12.82;;;;;;;-0.12;100.00;101774.03;5029686;28;20105;-62
2022/01/13 11:30:03;;;;;;;41.00;15.70;;;;;;;-0.32;100.00;101771.03;5035423;28;20514;-63
2022/01/13 11:32:29;;;;;;;37.72;14.20;;;;;;;0.36;100.00;101771.41;5029677;28;20033;-62